Wichita Mid Continent Airport
KICT : rendu visible

Aérodrome :











RETROUVEZ-NOUS SUR...

 
LOGIN :

S'inscrire | Disclaimer

   EN    FR    IT 

 









Légende :    VFR   VFR Marginal   IFR   IFR Intensif   IFR Très Intensif
Visi : 
Plafond : 
>= 8 km
>= 3000ft
5 à 8 km
1000 à 3000 ft
1500m à 5 km
500 à 1000 ft
800 à 1500m
200 à 500 ft
< 800m
< 200 ft
Symboles :   Orages  Brouillard  Fortes neiges  Fortes précipitations  Vent > 20 kt






- Altitude de l'aérodrome : 1333 ft
- Code IATA : ICT


KICT - Wichita Mid Continent

DERNIER METAR :
  • 281653Z 04009KT 10SM -RA FEW031 OVC060 02/M01 A3000 RMK AO2 RAE29B48 SLP168 P0000 T00171006

METARs EXPIRÉS :
  • 281553Z 03012KT 10SM -RA FEW035 SCT070 BKN110 BKN150 01/M01 A3000 RMK AO2 RAB07 SLP171 P0001 T00111011
  • 281453Z 03010KT 9SM SCT022 BKN039 OVC045 01/M01 A3005 RMK AO2 PRESFR SLP186 T00111011 58002

TAF KICT
Valide du 28 à 12h jusqu'au 29 à 12h UTC


281151Z 2812/2912 01005KT P6SM -RA BKN020
TEMPO 2812/2814 -FZDZRA
FM281800 01007KT 6SM RA BR OVC030
FM290000 01009KT 2SM RA BR SCT008 OVC015
FM290400 01015G23KT 3SM RA BR OVC015 WS020/04045KT
FM291100 36018KT 6SM RA BR OVC025
FIR KZKC / Amérique du Nord



MET'MAP, la Météo Aéronautique d'un coup d'oeil ! - Copyright ORBIFLY Décembre 2007 - Disclaimer

ORBIFLY MET'MAP TEAM :

Programmation & Développement : Alexandra Zaïnal
Sur une idée originale de : Baudouin d'Aumeries
Assistance à la programmation : Marc-Olivier Méhu
Soutien technique & logistique : Manuel Goepfert

Contact : metmap@orbifly.com




SOURCES & CREDITS :

   NOAA       Earth
Advisory